sensor_id;sensor_type;location;lat;lon;timestamp;pressure;altitude;pressure_sealevel;temperature;humidity
52983;BME280;48698;45.736;13.926;2023-03-22T00:00:28;97614.91;;;6.64;100.00
52983;BME280;48698;45.736;13.926;2023-03-22T00:05:32;97465.88;;;5.79;100.00
52983;BME280;48698;45.736;13.926;2023-03-22T00:10:37;97609.38;;;6.95;100.00
52983;BME280;48698;45.736;13.926;2023-03-22T00:15:41;97499.25;;;6.29;100.00
52983;BME280;48698;45.736;13.926;2023-03-22T00:20:48;97504.00;;;6.19;100.00
52983;BME280;48698;45.736;13.926;2023-03-22T00:25:51;97603.34;;;7.15;100.00
52983;BME280;48698;45.736;13.926;2023-03-22T00:31:00;97340.47;;;5.25;100.00
52983;BME280;48698;45.736;13.926;2023-03-22T00:36:23;97389.88;;;5.43;100.00
52983;BME280;48698;45.736;13.926;2023-03-22T00:41:26;97554.72;;;6.97;100.00
52983;BME280;48698;45.736;13.926;2023-03-22T00:46:30;97473.44;;;6.60;100.00
52983;BME280;48698;45.736;13.926;2023-03-22T00:51:34;97552.72;;;6.57;100.00
52983;BME280;48698;45.736;13.926;2023-03-22T00:56:37;97316.19;;;5.17;100.00
52983;BME280;48698;45.736;13.926;2023-03-22T01:01:41;97578.44;;;6.99;100.00
52983;BME280;48698;45.736;13.926;2023-03-22T01:06:45;97436.34;;;5.95;100.00
52983;BME280;48698;45.736;13.926;2023-03-22T01:11:49;97367.09;;;5.90;100.00
52983;BME280;48698;45.736;13.926;2023-03-22T01:16:53;97422.53;;;6.35;100.00
52983;BME280;48698;45.736;13.926;2023-03-22T01:21:59;97343.34;;;5.92;100.00
52983;BME280;48698;45.736;13.926;2023-03-22T01:27:10;97460.28;;;6.82;100.00
52983;BME280;48698;45.736;13.926;2023-03-22T01:32:14;97381.25;;;6.11;100.00
52983;BME280;48698;45.736;13.926;2023-03-22T01:37:18;97420.38;;;6.23;100.00
52983;BME280;48698;45.736;13.926;2023-03-22T01:42:22;97552.69;;;7.49;100.00
52983;BME280;48698;45.736;13.926;2023-03-22T01:47:32;97458.84;;;6.73;100.00
52983;BME280;48698;45.736;13.926;2023-03-22T01:52:37;97434.81;;;6.81;100.00
52983;BME280;48698;45.736;13.926;2023-03-22T01:57:41;97551.13;;;7.65;100.00
52983;BME280;48698;45.736;13.926;2023-03-22T02:02:47;97549.66;;;7.58;100.00
52983;BME280;48698;45.736;13.926;2023-03-22T02:07:51;97351.00;;;6.21;100.00
52983;BME280;48698;45.736;13.926;2023-03-22T02:18:36;97516.94;;;7.18;100.00
52983;BME280;48698;45.736;13.926;2023-03-22T02:24:12;97537.44;;;7.55;100.00
52983;BME280;48698;45.736;13.926;2023-03-22T02:29:43;97466.06;;;6.92;100.00
52983;BME280;48698;45.736;13.926;2023-03-22T02:45:57;97540.63;;;7.63;100.00
52983;BME280;48698;45.736;13.926;2023-03-22T02:51:15;97390.22;;;6.73;100.00
52983;BME280;48698;45.736;13.926;2023-03-22T02:56:48;97541.91;;;7.53;100.00
52983;BME280;48698;45.736;13.926;2023-03-22T03:01:58;97465.28;;;7.11;100.00
52983;BME280;48698;45.736;13.926;2023-03-22T03:07:05;97545.78;;;7.23;100.00
52983;BME280;48698;45.736;13.926;2023-03-22T03:12:28;97539.53;;;7.25;100.00
52983;BME280;48698;45.736;13.926;2023-03-22T03:33:25;97487.56;;;7.04;100.00
52983;BME280;48698;45.736;13.926;2023-03-22T03:38:30;97555.25;;;7.50;100.00
52983;BME280;48698;45.736;13.926;2023-03-22T03:43:36;97387.22;;;6.16;100.00
52983;BME280;48698;45.736;13.926;2023-03-22T03:48:44;97545.78;;;7.23;100.00
52983;BME280;48698;45.736;13.926;2023-03-22T03:53:48;97552.91;;;7.43;100.00
52983;BME280;48698;45.736;13.926;2023-03-22T03:58:52;97314.47;;;6.10;100.00
52983;BME280;48698;45.736;13.926;2023-03-22T04:03:57;97404.66;;;6.65;100.00
52983;BME280;48698;45.736;13.926;2023-03-22T04:09:00;97499.09;;;7.23;100.00
52983;BME280;48698;45.736;13.926;2023-03-22T04:14:04;97530.63;;;7.28;100.00
52983;BME280;48698;45.736;13.926;2023-03-22T04:19:08;97359.72;;;6.23;100.00
52983;BME280;48698;45.736;13.926;2023-03-22T04:24:12;97497.88;;;7.10;100.00
52983;BME280;48698;45.736;13.926;2023-03-22T04:29:15;97483.06;;;6.85;100.00
52983;BME280;48698;45.736;13.926;2023-03-22T04:34:18;97555.38;;;7.47;100.00
52983;BME280;48698;45.736;13.926;2023-03-22T04:39:23;97328.53;;;6.11;100.00
52983;BME280;48698;45.736;13.926;2023-03-22T04:44:26;97327.41;;;5.95;100.00
52983;BME280;48698;45.736;13.926;2023-03-22T04:49:30;97483.31;;;6.79;100.00
52983;BME280;48698;45.736;13.926;2023-03-22T04:54:33;97500.59;;;7.09;100.00
52983;BME280;48698;45.736;13.926;2023-03-22T04:59:37;97418.41;;;6.73;100.00
52983;BME280;48698;45.736;13.926;2023-03-22T05:04:41;97456.22;;;6.73;100.00
52983;BME280;48698;45.736;13.926;2023-03-22T05:09:48;97549.13;;;7.28;100.00
52983;BME280;48698;45.736;13.926;2023-03-22T05:14:51;97286.19;;;5.69;100.00
52983;BME280;48698;45.736;13.926;2023-03-22T05:19:55;97564.59;;;7.37;100.00
52983;BME280;48698;45.736;13.926;2023-03-22T05:24:58;97544.06;;;7.22;100.00
52983;BME280;48698;45.736;13.926;2023-03-22T05:30:03;97568.75;;;7.43;100.00
52983;BME280;48698;45.736;13.926;2023-03-22T05:35:06;97527.22;;;7.46;100.00
52983;BME280;48698;45.736;13.926;2023-03-22T05:40:10;97422.19;;;6.44;100.00
52983;BME280;48698;45.736;13.926;2023-03-22T05:45:13;97527.97;;;7.28;100.00
52983;BME280;48698;45.736;13.926;2023-03-22T05:50:20;97590.22;;;7.78;100.00
52983;BME280;48698;45.736;13.926;2023-03-22T05:55:24;97551.50;;;7.56;100.00
52983;BME280;48698;45.736;13.926;2023-03-22T06:00:28;97355.00;;;6.31;100.00
52983;BME280;48698;45.736;13.926;2023-03-22T06:05:34;97344.66;;;6.48;100.00
52983;BME280;48698;45.736;13.926;2023-03-22T06:10:49;97552.56;;;7.94;100.00
52983;BME280;48698;45.736;13.926;2023-03-22T06:15:58;97383.97;;;6.98;100.00
52983;BME280;48698;45.736;13.926;2023-03-22T06:21:01;97450.16;;;7.57;100.00
52983;BME280;48698;45.736;13.926;2023-03-22T06:26:05;97446.41;;;7.82;100.00
52983;BME280;48698;45.736;13.926;2023-03-22T06:31:09;97585.66;;;8.85;100.00
52983;BME280;48698;45.736;13.926;2023-03-22T06:36:12;97518.69;;;8.62;100.00
52983;BME280;48698;45.736;13.926;2023-03-22T06:41:16;97447.28;;;8.42;100.00
52983;BME280;48698;45.736;13.926;2023-03-22T06:46:20;97540.44;;;9.08;100.00
52983;BME280;48698;45.736;13.926;2023-03-22T06:51:23;97599.69;;;9.61;100.00
52983;BME280;48698;45.736;13.926;2023-03-22T06:56:27;97328.97;;;8.07;100.00
52983;BME280;48698;45.736;13.926;2023-03-22T07:01:30;97506.31;;;9.38;100.00
52983;BME280;48698;45.736;13.926;2023-03-22T07:06:34;97373.16;;;8.79;100.00
52983;BME280;48698;45.736;13.926;2023-03-22T07:11:37;97594.44;;;10.31;100.00
52983;BME280;48698;45.736;13.926;2023-03-22T07:16:40;97597.81;;;10.52;100.00
52983;BME280;48698;45.736;13.926;2023-03-22T07:21:45;97593.72;;;10.79;100.00
52983;BME280;48698;45.736;13.926;2023-03-22T07:26:49;97505.81;;;10.51;100.00
52983;BME280;48698;45.736;13.926;2023-03-22T07:31:54;97602.16;;;11.36;100.00
52983;BME280;48698;45.736;13.926;2023-03-22T07:36:56;97629.97;;;11.46;100.00
52983;BME280;48698;45.736;13.926;2023-03-22T07:41:59;97585.41;;;11.34;100.00
52983;BME280;48698;45.736;13.926;2023-03-22T07:47:07;97458.47;;;10.59;100.00
52983;BME280;48698;45.736;13.926;2023-03-22T07:52:18;97481.75;;;11.03;100.00
52983;BME280;48698;45.736;13.926;2023-03-22T07:57:20;97538.06;;;11.40;100.00
52983;BME280;48698;45.736;13.926;2023-03-22T08:02:23;97549.59;;;11.72;100.00
52983;BME280;48698;45.736;13.926;2023-03-22T08:07:26;97550.69;;;12.29;100.00
52983;BME280;48698;45.736;13.926;2023-03-22T08:12:29;97351.44;;;11.50;100.00
52983;BME280;48698;45.736;13.926;2023-03-22T08:17:33;97391.19;;;12.11;100.00
52983;BME280;48698;45.736;13.926;2023-03-22T08:22:37;97567.13;;;13.65;100.00
52983;BME280;48698;45.736;13.926;2023-03-22T08:27:40;97596.19;;;14.49;100.00
52983;BME280;48698;45.736;13.926;2023-03-22T08:32:53;97555.91;;;14.26;100.00
52983;BME280;48698;45.736;13.926;2023-03-22T08:37:55;97356.09;;;13.02;100.00
52983;BME280;48698;45.736;13.926;2023-03-22T08:42:58;97579.44;;;14.85;100.00
52983;BME280;48698;45.736;13.926;2023-03-22T08:48:01;97383.69;;;14.19;100.00
52983;BME280;48698;45.736;13.926;2023-03-22T08:53:05;97618.34;;;16.14;100.00
52983;BME280;48698;45.736;13.926;2023-03-22T08:58:08;97428.09;;;14.95;100.00
52983;BME280;48698;45.736;13.926;2023-03-22T09:03:15;97567.63;;;16.82;100.00
52983;BME280;48698;45.736;13.926;2023-03-22T09:08:19;97524.50;;;17.19;100.00
52983;BME280;48698;45.736;13.926;2023-03-22T09:13:22;97590.25;;;17.80;100.00
52983;BME280;48698;45.736;13.926;2023-03-22T09:18:24;97527.03;;;17.31;100.00
52983;BME280;48698;45.736;13.926;2023-03-22T09:23:28;97552.63;;;18.02;100.00
52983;BME280;48698;45.736;13.926;2023-03-22T09:28:33;97538.16;;;16.93;100.00
52983;BME280;48698;45.736;13.926;2023-03-22T09:33:37;97561.03;;;18.08;100.00
52983;BME280;48698;45.736;13.926;2023-03-22T09:38:42;97391.63;;;17.78;100.00
52983;BME280;48698;45.736;13.926;2023-03-22T09:43:57;97472.06;;;18.64;100.00
52983;BME280;48698;45.736;13.926;2023-03-22T09:49:04;97557.28;;;19.05;100.00
52983;BME280;48698;45.736;13.926;2023-03-22T09:59:38;97578.06;;;19.75;94.12
52983;BME280;48698;45.736;13.926;2023-03-22T10:10:05;97577.72;;;19.38;100.00
52983;BME280;48698;45.736;13.926;2023-03-22T10:15:12;97573.88;;;19.91;100.00
52983;BME280;48698;45.736;13.926;2023-03-22T10:25:43;97447.03;;;18.94;98.95
52983;BME280;48698;45.736;13.926;2023-03-22T10:30:52;97577.03;;;19.66;96.56
52983;BME280;48698;45.736;13.926;2023-03-22T10:35:56;97415.06;;;18.29;93.74
52983;BME280;48698;45.736;13.926;2023-03-22T10:41:09;97338.84;;;19.09;94.14
52983;BME280;48698;45.736;13.926;2023-03-22T10:46:19;97577.25;;;20.43;89.43
52983;BME280;48698;45.736;13.926;2023-03-22T10:56:41;97561.28;;;19.62;81.89
52983;BME280;48698;45.736;13.926;2023-03-22T11:01:49;97499.22;;;18.61;83.09
52983;BME280;48698;45.736;13.926;2023-03-22T11:06:52;97559.94;;;19.26;84.64
52983;BME280;48698;45.736;13.926;2023-03-22T11:12:00;97576.09;;;19.46;80.47
52983;BME280;48698;45.736;13.926;2023-03-22T11:22:24;97566.97;;;19.68;78.83
52983;BME280;48698;45.736;13.926;2023-03-22T11:27:30;97494.53;;;19.35;77.04
52983;BME280;48698;45.736;13.926;2023-03-22T11:32:36;97571.97;;;19.22;74.47
52983;BME280;48698;45.736;13.926;2023-03-22T11:37:45;97569.47;;;19.30;76.85
52983;BME280;48698;45.736;13.926;2023-03-22T11:42:52;97558.78;;;18.77;75.35
52983;BME280;48698;45.736;13.926;2023-03-22T11:48:06;97555.53;;;18.94;75.39
52983;BME280;48698;45.736;13.926;2023-03-22T11:53:18;97549.16;;;18.95;73.23
52983;BME280;48698;45.736;13.926;2023-03-22T11:58:43;97542.31;;;19.12;72.71
52983;BME280;48698;45.736;13.926;2023-03-22T12:03:53;97459.31;;;18.66;73.53
52983;BME280;48698;45.736;13.926;2023-03-22T12:09:02;97296.91;;;17.76;72.18
52983;BME280;48698;45.736;13.926;2023-03-22T12:14:27;97536.50;;;19.17;67.46
52983;BME280;48698;45.736;13.926;2023-03-22T12:19:51;97530.75;;;19.21;71.86
52983;BME280;48698;45.736;13.926;2023-03-22T12:24:58;97532.69;;;19.19;70.87
52983;BME280;48698;45.736;13.926;2023-03-22T12:35:20;97516.16;;;19.54;73.31
52983;BME280;48698;45.736;13.926;2023-03-22T12:40:35;97518.56;;;19.27;70.22
52983;BME280;48698;45.736;13.926;2023-03-22T12:45:42;97457.75;;;18.84;68.93
52983;BME280;48698;45.736;13.926;2023-03-22T12:50:59;97499.72;;;19.57;68.20
52983;BME280;48698;45.736;13.926;2023-03-22T12:56:06;97413.16;;;19.22;67.32
52983;BME280;48698;45.736;13.926;2023-03-22T13:01:28;97494.75;;;19.62;68.00
52983;BME280;48698;45.736;13.926;2023-03-22T13:06:53;97462.88;;;19.57;66.75
52983;BME280;48698;45.736;13.926;2023-03-22T13:22:29;97489.78;;;19.48;63.38
52983;BME280;48698;45.736;13.926;2023-03-22T13:27:52;97474.94;;;19.33;62.22
52983;BME280;48698;45.736;13.926;2023-03-22T13:33:02;97210.25;;;18.04;65.64
52983;BME280;48698;45.736;13.926;2023-03-22T13:38:42;97486.63;;;19.43;65.78
52983;BME280;48698;45.736;13.926;2023-03-22T13:43:46;97400.34;;;19.04;69.62
52983;BME280;48698;45.736;13.926;2023-03-22T13:49:13;97441.44;;;18.86;64.59
52983;BME280;48698;45.736;13.926;2023-03-22T13:54:20;97477.56;;;19.14;63.44
52983;BME280;48698;45.736;13.926;2023-03-22T14:04:48;97464.00;;;19.45;64.55
52983;BME280;48698;45.736;13.926;2023-03-22T14:10:10;97468.00;;;19.30;62.44
52983;BME280;48698;45.736;13.926;2023-03-22T14:15:17;97267.94;;;18.31;63.12
52983;BME280;48698;45.736;13.926;2023-03-22T14:20:21;97454.63;;;19.59;62.38
52983;BME280;48698;45.736;13.926;2023-03-22T14:25:29;97453.06;;;19.47;62.85
52983;BME280;48698;45.736;13.926;2023-03-22T14:35:37;97444.28;;;19.45;62.92
52983;BME280;48698;45.736;13.926;2023-03-22T14:40:48;97444.34;;;19.34;62.96
52983;BME280;48698;45.736;13.926;2023-03-22T14:46:04;97442.94;;;19.39;61.82
52983;BME280;48698;45.736;13.926;2023-03-22T14:51:11;97439.09;;;18.92;61.01
52983;BME280;48698;45.736;13.926;2023-03-22T14:56:18;97437.47;;;18.80;61.64
52983;BME280;48698;45.736;13.926;2023-03-22T15:01:26;97433.28;;;18.97;61.59
52983;BME280;48698;45.736;13.926;2023-03-22T15:06:33;97439.63;;;18.86;60.11
52983;BME280;48698;45.736;13.926;2023-03-22T15:11:40;97408.47;;;18.84;62.19
52983;BME280;48698;45.736;13.926;2023-03-22T15:16:42;97319.53;;;18.25;62.44
52983;BME280;48698;45.736;13.926;2023-03-22T15:21:45;97430.28;;;18.60;60.54
52983;BME280;48698;45.736;13.926;2023-03-22T15:26:47;97387.81;;;18.43;60.87
52983;BME280;48698;45.736;13.926;2023-03-22T15:31:48;97317.13;;;18.01;61.35
52983;BME280;48698;45.736;13.926;2023-03-22T15:36:49;97304.41;;;18.03;60.87
52983;BME280;48698;45.736;13.926;2023-03-22T15:47:23;97403.63;;;19.18;60.68
52983;BME280;48698;45.736;13.926;2023-03-22T15:52:30;97383.66;;;19.20;59.14
52983;BME280;48698;45.736;13.926;2023-03-22T16:02:35;97401.06;;;18.76;60.00
52983;BME280;48698;45.736;13.926;2023-03-22T16:07:36;97402.72;;;18.26;62.54
52983;BME280;48698;45.736;13.926;2023-03-22T16:12:36;97182.66;;;16.78;62.16
52983;BME280;48698;45.736;13.926;2023-03-22T16:17:37;97394.34;;;17.67;63.83
52983;BME280;48698;45.736;13.926;2023-03-22T16:22:39;97417.34;;;18.13;63.67
52983;BME280;48698;45.736;13.926;2023-03-22T16:27:40;97287.50;;;17.18;63.76
52983;BME280;48698;45.736;13.926;2023-03-22T16:32:42;97419.69;;;17.85;63.25
52983;BME280;48698;45.736;13.926;2023-03-22T16:37:43;97363.13;;;17.23;65.80
52983;BME280;48698;45.736;13.926;2023-03-22T16:42:58;97436.44;;;17.13;65.68
52983;BME280;48698;45.736;13.926;2023-03-22T16:48:00;97399.63;;;16.59;68.00
52983;BME280;48698;45.736;13.926;2023-03-22T16:53:01;97362.25;;;16.00;70.03
52983;BME280;48698;45.736;13.926;2023-03-22T16:58:02;97381.25;;;16.09;71.90
52983;BME280;48698;45.736;13.926;2023-03-22T17:03:04;97445.91;;;16.50;72.00
52983;BME280;48698;45.736;13.926;2023-03-22T17:08:15;97429.09;;;15.78;73.47
52983;BME280;48698;45.736;13.926;2023-03-22T17:13:17;97365.16;;;15.15;75.50
52983;BME280;48698;45.736;13.926;2023-03-22T17:18:17;97396.44;;;15.02;77.67
52983;BME280;48698;45.736;13.926;2023-03-22T17:23:18;97463.53;;;14.86;81.96
52983;BME280;48698;45.736;13.926;2023-03-22T17:28:19;97197.47;;;13.09;88.00
52983;BME280;48698;45.736;13.926;2023-03-22T17:33:22;97291.94;;;12.09;100.00
52983;BME280;48698;45.736;13.926;2023-03-22T17:38:22;97461.97;;;12.29;100.00
52983;BME280;48698;45.736;13.926;2023-03-22T17:43:23;97441.25;;;12.48;100.00
52983;BME280;48698;45.736;13.926;2023-03-22T17:48:35;97338.53;;;12.02;100.00
52983;BME280;48698;45.736;13.926;2023-03-22T17:53:36;97460.03;;;11.73;100.00
52983;BME280;48698;45.736;13.926;2023-03-22T17:58:37;97269.63;;;9.85;100.00
52983;BME280;48698;45.736;13.926;2023-03-22T18:03:38;97476.59;;;11.47;100.00
52983;BME280;48698;45.736;13.926;2023-03-22T18:08:39;97224.13;;;8.95;100.00
52983;BME280;48698;45.736;13.926;2023-03-22T18:13:40;97224.56;;;8.68;100.00
52983;BME280;48698;45.736;13.926;2023-03-22T18:18:42;97526.31;;;10.98;100.00
52983;BME280;48698;45.736;13.926;2023-03-22T18:23:43;97418.66;;;10.75;100.00
52983;BME280;48698;45.736;13.926;2023-03-22T18:28:44;97506.41;;;10.73;100.00
52983;BME280;48698;45.736;13.926;2023-03-22T18:33:46;97381.44;;;8.16;100.00
52983;BME280;48698;45.736;13.926;2023-03-22T18:38:46;97375.13;;;8.57;100.00
52983;BME280;48698;45.736;13.926;2023-03-22T18:43:48;97324.97;;;8.17;100.00
52983;BME280;48698;45.736;13.926;2023-03-22T18:48:50;97337.00;;;8.78;100.00
52983;BME280;48698;45.736;13.926;2023-03-22T18:53:51;97269.59;;;7.17;100.00
52983;BME280;48698;45.736;13.926;2023-03-22T18:58:52;97524.34;;;8.55;100.00
52983;BME280;48698;45.736;13.926;2023-03-22T19:03:53;97505.28;;;9.04;100.00
52983;BME280;48698;45.736;13.926;2023-03-22T19:08:54;97431.31;;;9.00;100.00
52983;BME280;48698;45.736;13.926;2023-03-22T19:13:55;97320.94;;;7.90;100.00
52983;BME280;48698;45.736;13.926;2023-03-22T19:18:57;97355.50;;;6.84;100.00
52983;BME280;48698;45.736;13.926;2023-03-22T19:23:57;97378.25;;;6.87;100.00
52983;BME280;48698;45.736;13.926;2023-03-22T19:29:01;97469.59;;;8.55;100.00
52983;BME280;48698;45.736;13.926;2023-03-22T19:34:02;97375.75;;;7.66;100.00
52983;BME280;48698;45.736;13.926;2023-03-22T19:39:03;97430.66;;;7.79;100.00
52983;BME280;48698;45.736;13.926;2023-03-22T19:44:04;97313.16;;;7.27;100.00
52983;BME280;48698;45.736;13.926;2023-03-22T19:49:04;97353.47;;;6.91;100.00
52983;BME280;48698;45.736;13.926;2023-03-22T19:54:06;97418.25;;;7.82;100.00
52983;BME280;48698;45.736;13.926;2023-03-22T19:59:08;97507.78;;;7.69;100.00
52983;BME280;48698;45.736;13.926;2023-03-22T20:04:09;97440.63;;;7.53;100.00
52983;BME280;48698;45.736;13.926;2023-03-22T20:09:12;97508.53;;;8.13;100.00
52983;BME280;48698;45.736;13.926;2023-03-22T20:14:13;97474.50;;;8.05;100.00
52983;BME280;48698;45.736;13.926;2023-03-22T20:19:14;97322.25;;;7.00;100.00
52983;BME280;48698;45.736;13.926;2023-03-22T20:24:25;97515.09;;;7.62;100.00
52983;BME280;48698;45.736;13.926;2023-03-22T20:29:26;97286.84;;;5.99;100.00
52983;BME280;48698;45.736;13.926;2023-03-22T20:34:27;97527.78;;;7.33;100.00
52983;BME280;48698;45.736;13.926;2023-03-22T20:39:28;97424.13;;;7.06;100.00
52983;BME280;48698;45.736;13.926;2023-03-22T20:44:28;97506.06;;;6.81;100.00
52983;BME280;48698;45.736;13.926;2023-03-22T20:49:29;97527.22;;;7.68;100.00
52983;BME280;48698;45.736;13.926;2023-03-22T20:54:31;97459.31;;;6.85;100.00
52983;BME280;48698;45.736;13.926;2023-03-22T20:59:42;97348.88;;;6.07;100.00
52983;BME280;48698;45.736;13.926;2023-03-22T21:04:44;97289.84;;;5.65;100.00
52983;BME280;48698;45.736;13.926;2023-03-22T21:09:45;97330.13;;;6.15;100.00
52983;BME280;48698;45.736;13.926;2023-03-22T21:14:46;97292.28;;;5.23;100.00
52983;BME280;48698;45.736;13.926;2023-03-22T21:19:48;97263.72;;;4.61;100.00
52983;BME280;48698;45.736;13.926;2023-03-22T21:24:50;97389.56;;;6.00;100.00
52983;BME280;48698;45.736;13.926;2023-03-22T21:29:51;97564.53;;;6.94;100.00
52983;BME280;48698;45.736;13.926;2023-03-22T21:34:53;97566.66;;;6.84;100.00
52983;BME280;48698;45.736;13.926;2023-03-22T21:39:54;97554.44;;;6.82;100.00
52983;BME280;48698;45.736;13.926;2023-03-22T21:44:55;97451.72;;;6.31;100.00
52983;BME280;48698;45.736;13.926;2023-03-22T21:49:57;97338.94;;;5.67;100.00
52983;BME280;48698;45.736;13.926;2023-03-22T21:54:58;97284.38;;;4.74;100.00
52983;BME280;48698;45.736;13.926;2023-03-22T21:59:58;97317.88;;;5.18;100.00
52983;BME280;48698;45.736;13.926;2023-03-22T22:05:09;97520.59;;;5.97;100.00
52983;BME280;48698;45.736;13.926;2023-03-22T22:10:12;97441.59;;;5.44;100.00
52983;BME280;48698;45.736;13.926;2023-03-22T22:15:17;97430.28;;;5.16;100.00
52983;BME280;48698;45.736;13.926;2023-03-22T22:20:19;97493.56;;;5.65;100.00
52983;BME280;48698;45.736;13.926;2023-03-22T22:25:22;97398.66;;;5.42;100.00
52983;BME280;48698;45.736;13.926;2023-03-22T22:30:24;97494.06;;;5.77;100.00
52983;BME280;48698;45.736;13.926;2023-03-22T22:35:25;97394.34;;;5.15;100.00
52983;BME280;48698;45.736;13.926;2023-03-22T22:40:26;97422.16;;;5.24;100.00
52983;BME280;48698;45.736;13.926;2023-03-22T22:45:27;97535.97;;;5.58;100.00
52983;BME280;48698;45.736;13.926;2023-03-22T22:50:28;97525.06;;;5.68;100.00
52983;BME280;48698;45.736;13.926;2023-03-22T22:55:29;97523.53;;;5.89;100.00
52983;BME280;48698;45.736;13.926;2023-03-22T23:00:29;97557.38;;;6.26;100.00
52983;BME280;48698;45.736;13.926;2023-03-22T23:05:30;97254.59;;;4.72;100.00
52983;BME280;48698;45.736;13.926;2023-03-22T23:10:32;97286.25;;;4.95;100.00
52983;BME280;48698;45.736;13.926;2023-03-22T23:15:46;97488.59;;;5.83;100.00
52983;BME280;48698;45.736;13.926;2023-03-22T23:20:49;97459.00;;;5.74;100.00
52983;BME280;48698;45.736;13.926;2023-03-22T23:25:50;97288.59;;;4.51;100.00
52983;BME280;48698;45.736;13.926;2023-03-22T23:30:51;97486.28;;;5.98;100.00
52983;BME280;48698;45.736;13.926;2023-03-22T23:35:53;97314.88;;;4.51;100.00
52983;BME280;48698;45.736;13.926;2023-03-22T23:40:59;97517.88;;;5.47;100.00
52983;BME280;48698;45.736;13.926;2023-03-22T23:46:00;97447.47;;;5.77;100.00
52983;BME280;48698;45.736;13.926;2023-03-22T23:51:05;97495.44;;;5.62;100.00
52983;BME280;48698;45.736;13.926;2023-03-22T23:56:13;97474.22;;;5.66;100.00
